Terminal Aerodrome Forecast
Issued by NWS

Home | Current Version | Previous Version | Text Only | Print | Product List | Glossary On
Versions: 1 2 3 4 5 6 7 8 9 10 11 12 13 14 15
000
FTUS45 KTFX 251144
TAFGTF
TAF
KGTF 251144Z 2512/2612 26008KT P6SM SCT025 BKN060
     FM251700 25008KT P6SM SCT040 BKN080
     FM252100 35007KT P6SM VCSH SCT030 BKN060
     FM260200 05007KT P6SM SCT060 BKN120=

USA.gov is the U.S. government's official web portal to all federal, state and local government web resources and services.